Time;durP1;ratioP1;P1;durP2;ratioP2;P2;SDS_P1;SDS_P2;PMS_P1;PMS_P2;Temp;Humidity;BMP_temperature;BMP_pressure;BME280_temperature;BME280_humidity;BME280_pressure;Samples;Min_cycle;Max_cycle;Signal;HPM_P1;HPM_P2
2022/06/26 00:01:57;;;;;;;20.63;3.00;;;;;;;;;;6180712;23;20464;-88
2022/06/26 00:04:25;;;;;;;19.47;3.20;;;;;;;;;;6131008;23;20967;-89
2022/06/26 00:06:55;;;;;;;14.30;2.90;;;;;;;;;;6132130;23;20396;-89
2022/06/26 00:09:24;;;;;;;17.60;3.00;;;;;;;;;;6132817;23;20793;-88
2022/06/26 00:11:52;;;;;;;19.70;3.73;;;;;;;;;;6156274;23;20417;-88
2022/06/26 00:14:20;;;;;;;17.20;2.83;;;;;;;;;;6155709;23;20399;-88
2022/06/26 00:16:51;;;;;;;16.00;3.33;;;;;;;;;;6154957;23;20503;-88
2022/06/26 00:19:18;;;;;;;15.23;3.07;;;;;;;;;;6155759;23;20449;-88
2022/06/26 00:21:46;;;;;;;10.73;2.87;;;;;;;;;;6131313;23;20404;-87
2022/06/26 00:24:15;;;;;;;22.13;3.20;;;;;;;;;;6155115;23;20408;-88
2022/06/26 00:26:44;;;;;;;14.93;2.20;;;;;;;;;;6136680;23;20428;-88
2022/06/26 00:29:12;;;;;;;18.27;3.53;;;;;;;;;;6185091;23;20890;-88
2022/06/26 00:31:39;;;;;;;20.60;3.37;;;;;;;;;;6136648;23;20778;-87
2022/06/26 00:34:07;;;;;;;19.77;3.13;;;;;;;;;;6137043;23;20404;-85
2022/06/26 00:36:34;;;;;;;15.80;2.70;;;;;;;;;;6136328;23;20404;-86
2022/06/26 00:39:02;;;;;;;10.87;2.37;;;;;;;;;;6160953;23;20440;-86
2022/06/26 00:41:29;;;;;;;12.00;2.70;;;;;;;;;;6136413;23;20412;-86
2022/06/26 00:43:57;;;;;;;13.17;3.27;;;;;;;;;;6161117;23;20396;-86
2022/06/26 00:46:24;;;;;;;11.40;2.40;;;;;;;;;;6185156;23;20903;-86
2022/06/26 00:48:52;;;;;;;11.90;2.40;;;;;;;;;;6185259;23;20408;-86
2022/06/26 00:51:21;;;;;;;11.40;2.70;;;;;;;;;;6161046;23;20393;-86
2022/06/26 00:53:48;;;;;;;8.13;1.90;;;;;;;;;;6160047;23;20785;-86
2022/06/26 00:56:16;;;;;;;5.93;1.80;;;;;;;;;;6161240;23;20396;-86
2022/06/26 00:58:43;;;;;;;16.30;2.77;;;;;;;;;;6185991;23;20555;-87
2022/06/26 01:01:10;;;;;;;6.60;1.90;;;;;;;;;;6160038;23;20787;-86
2022/06/26 01:03:38;;;;;;;9.23;2.43;;;;;;;;;;6184224;23;20411;-86
2022/06/26 01:06:06;;;;;;;9.03;1.83;;;;;;;;;;6161068;23;20424;-86
2022/06/26 01:08:34;;;;;;;14.27;2.30;;;;;;;;;;6136605;23;20886;-86
2022/06/26 01:11:01;;;;;;;12.50;2.30;;;;;;;;;;6136963;23;20435;-86
2022/06/26 01:13:28;;;;;;;16.93;2.77;;;;;;;;;;6135639;23;20419;-87
2022/06/26 01:15:56;;;;;;;8.87;2.07;;;;;;;17.70;nan;101210.06;6159994;23;20470;-86
2022/06/26 01:18:24;;;;;;;10.40;2.50;;;;;;;17.71;nan;101217.25;6136527;23;20455;-85
2022/06/26 01:20:54;;;;;;;9.50;2.17;;;;;;;17.67;nan;101204.16;6137250;23;20408;-87
2022/06/26 01:23:22;;;;;;;14.63;2.93;;;;;;;17.63;nan;101200.97;6160669;23;20423;-87
2022/06/26 01:25:53;;;;;;;11.70;2.70;;;;;;;17.67;nan;101210.53;6160753;23;20539;-87
2022/06/26 01:28:23;;;;;;;11.17;2.03;;;;;;;17.68;nan;101216.91;6186207;23;20966;-87
2022/06/26 01:30:51;;;;;;;16.00;2.80;;;;;;;17.56;nan;101202.94;6186044;23;20416;-87
2022/06/26 01:33:20;;;;;;;8.57;2.40;;;;;;;17.60;nan;101215.22;6043043;23;20555;-87
2022/06/26 01:35:50;;;;;;;5.20;1.80;;;;;;;17.52;nan;101212.75;6066454;23;20509;-87
2022/06/26 01:38:23;;;;;;;8.17;2.20;;;;;;;17.54;nan;101216.97;6041596;23;20451;-87
2022/06/26 01:40:51;;;;;;;11.73;2.37;;;;;;;17.53;nan;101207.00;6065446;23;20412;-87
2022/06/26 01:43:21;;;;;;;7.63;1.70;;;;;;;17.48;nan;101212.38;6019553;23;20491;-87
2022/06/26 01:45:51;;;;;;;17.03;2.87;;;;;;;17.42;nan;101202.22;6066372;23;20494;-87
2022/06/26 01:48:19;;;;;;;19.23;3.50;;;;;;;17.41;nan;101202.47;6042576;23;20416;-87
2022/06/26 01:50:47;;;;;;;10.90;2.30;;;;;;;17.44;nan;101215.81;6091768;23;20921;-87
2022/06/26 01:53:16;;;;;;;10.43;2.20;;;;;;;17.44;nan;101213.06;6136352;23;20483;-87
2022/06/26 01:55:43;;;;;;;12.80;2.70;;;;;;;17.43;nan;101212.22;6135581;23;20415;-87
2022/06/26 01:58:13;;;;;;;13.60;2.13;;;;;;;17.39;nan;101215.66;6136263;23;20511;-87
2022/06/26 02:00:42;;;;;;;14.13;2.70;;;;;;;17.35;nan;101208.88;6135740;23;20408;-87
2022/06/26 02:03:10;;;;;;;10.03;2.63;;;;;;;17.36;nan;101202.28;6136744;23;20483;-87
2022/06/26 02:05:38;;;;;;;10.57;2.27;;;;;;;17.36;nan;101207.81;6135739;23;20419;-87
2022/06/26 02:08:09;;;;;;;13.27;2.37;;;;;;;17.36;nan;101207.81;6135486;23;20756;-87
2022/06/26 02:13:42;;;;;;;10.47;2.03;;;;;;;17.31;nan;101215.97;6143671;23;20423;-86
2022/06/26 02:16:32;;;;;;;11.47;1.90;;;;;;;17.27;nan;101210.88;6184896;23;20419;-89
2022/06/26 02:19:02;;;;;;;14.57;2.00;;;;;;;17.22;nan;101207.94;6138975;23;20443;-87
2022/06/26 02:21:31;;;;;;;9.57;2.43;;;;;;;17.17;nan;101205.00;6159944;23;20419;-88
2022/06/26 02:23:59;;;;;;;8.13;2.20;;;;;;;17.17;nan;101212.44;6136738;23;20419;-88
2022/06/26 02:26:27;;;;;;;13.47;2.93;;;;;;;17.10;nan;101201.47;6136068;23;20415;-88
2022/06/26 02:28:57;;;;;;;11.40;2.43;;;;;;;17.14;nan;101208.22;6136041;23;20966;-87
2022/06/26 02:31:24;;;;;;;11.70;1.83;;;;;;;17.10;nan;101204.25;6159972;23;20404;-87
2022/06/26 02:33:52;;;;;;;13.63;2.77;;;;;;;17.06;nan;101208.50;6135664;23;20488;-87
2022/06/26 02:36:20;;;;;;;6.87;2.07;;;;;;;17.04;nan;101210.66;6135783;23;20399;-87
2022/06/26 02:38:48;;;;;;;7.60;1.53;;;;;;;17.01;nan;101210.25;6112171;23;20451;-87
2022/06/26 02:41:15;;;;;;;11.17;2.10;;;;;;;16.99;nan;101209.63;6134894;23;20415;-87
2022/06/26 02:43:43;;;;;;;13.00;3.70;;;;;;;16.93;nan;101206.69;6135231;23;20922;-87
2022/06/26 02:46:11;;;;;;;9.77;2.60;;;;;;;16.96;nan;101219.19;6111829;23;20412;-88
2022/06/26 02:48:39;;;;;;;12.23;2.70;;;;;;;16.91;nan;101211.63;6135165;23;20412;-87
2022/06/26 02:51:10;;;;;;;8.57;2.20;;;;;;;16.87;nan;101209.53;6136254;23;20411;-88
2022/06/26 02:53:37;;;;;;;13.20;1.87;;;;;;;16.84;nan;101201.69;6135930;23;20423;-87
2022/06/26 02:56:06;;;;;;;10.37;1.73;;;;;;;16.86;nan;101202.31;6135509;23;20539;-87
2022/06/26 02:58:35;;;;;;;7.83;1.90;;;;;;;16.83;nan;101208.28;6160021;23;20440;-87
2022/06/26 03:01:03;;;;;;;10.83;1.60;;;;;;;16.79;nan;101198.72;6111314;23;20407;-86
2022/06/26 03:03:31;;;;;;;10.97;2.87;;;;;;;16.74;nan;101190.31;6110471;23;20408;-87
2022/06/26 03:05:59;;;;;;;7.97;2.00;;;;;;;16.71;nan;101187.97;6112115;23;20408;-88
2022/06/26 03:08:27;;;;;;;16.00;2.30;;;;;;;16.75;nan;101189.22;6160249;23;20404;-87
2022/06/26 03:10:54;;;;;;;4.60;1.50;;;;;;;16.79;nan;101185.78;6135743;23;20730;-87
2022/06/26 03:13:22;;;;;;;13.77;2.23;;;;;;;16.73;nan;101192.22;6111573;23;20484;-88
2022/06/26 03:15:51;;;;;;;8.87;1.83;;;;;;;16.58;nan;101173.16;6135542;23;20404;-89
2022/06/26 03:18:20;;;;;;;14.77;2.43;;;;;;;16.66;nan;101201.59;6185518;23;20738;-88
2022/06/26 03:20:48;;;;;;;11.30;2.57;;;;;;;16.67;nan;101197.78;6160022;23;20880;-87
2022/06/26 03:24:10;;;;;;;10.47;1.70;;;;;;;16.69;nan;101184.59;6135842;23;20419;-87
2022/06/26 03:34:16;;;;;;;12.87;1.97;;;;;;;16.55;nan;101206.72;6213511;23;20465;-88
2022/06/26 03:36:44;;;;;;;5.83;1.70;;;;;;;16.49;nan;101196.59;6187738;23;20427;-87
2022/06/26 03:39:11;;;;;;;10.80;2.30;;;;;;;16.55;nan;101195.69;6190088;23;20462;-88
2022/06/26 03:41:39;;;;;;;15.10;2.30;;;;;;;16.46;nan;101180.47;6142941;23;20466;-87
2022/06/26 03:44:07;;;;;;;12.80;2.73;;;;;;;16.50;nan;101202.94;6166566;23;20399;-88
2022/06/26 03:46:35;;;;;;;6.30;1.70;;;;;;;16.44;nan;101182.59;6166656;23;20404;-87
2022/06/26 03:49:03;;;;;;;7.63;1.80;;;;;;;16.44;nan;101193.63;6154664;23;20418;-89
2022/06/26 03:51:40;;;;;;;10.10;2.27;;;;;;;16.54;nan;101213.31;6137983;23;20479;-88
2022/06/26 03:54:08;;;;;;;12.17;2.03;;;;;;;16.41;nan;101199.59;6161728;23;20986;-88
2022/06/26 03:56:37;;;;;;;9.30;1.87;;;;;;;16.37;nan;101198.34;6113721;23;20404;-87
2022/06/26 03:59:04;;;;;;;11.03;1.60;;;;;;;16.43;nan;101218.69;6113579;23;20442;-87
2022/06/26 04:01:32;;;;;;;6.33;1.90;;;;;;;16.41;nan;101210.63;6112943;23;20416;-88
2022/06/26 04:04:00;;;;;;;12.63;2.30;;;;;;;16.38;nan;101208.31;6137384;23;21021;-87
2022/06/26 04:06:28;;;;;;;11.50;2.47;;;;;;;16.40;nan;101219.97;6113479;23;20875;-87
2022/06/26 04:08:56;;;;;;;9.10;2.57;;;;;;;16.37;nan;101212.13;6137379;23;20479;-88
2022/06/26 04:11:23;;;;;;;13.27;1.87;;;;;;;16.43;nan;101226.97;6112072;23;20415;-87
2022/06/26 04:13:52;;;;;;;8.27;1.93;;;;;;;16.33;nan;101213.66;6136601;23;20929;-88
2022/06/26 04:16:21;;;;;;;8.33;2.23;;;;;;;16.38;nan;101215.72;6160910;23;20503;-87
2022/06/26 04:18:50;;;;;;;5.70;1.80;;;;;;;16.31;nan;101212.19;6112868;23;20447;-87
2022/06/26 04:21:24;;;;;;;5.90;1.73;;;;;;;16.28;nan;101205.19;6136943;23;20498;-88
2022/06/26 04:23:52;;;;;;;9.40;2.17;;;;;;;16.23;nan;101207.75;6137220;23;20538;-88
2022/06/26 04:26:20;;;;;;;15.83;2.57;;;;;;;16.30;nan;101216.00;6136740;23;20419;-88
2022/06/26 04:28:48;;;;;;;11.80;2.20;;;;;;;16.27;nan;101219.19;6113274;23;21005;-87
2022/06/26 04:31:16;;;;;;;9.13;2.30;;;;;;;16.26;nan;101240.41;6137289;23;20500;-87
2022/06/26 04:33:44;;;;;;;9.73;2.07;;;;;;;16.22;nan;101234.50;6136785;23;20973;-87
2022/06/26 04:36:15;;;;;;;11.03;2.10;;;;;;;16.21;nan;101231.94;6137572;23;20465;-87
2022/06/26 04:38:43;;;;;;;7.70;2.00;;;;;;;16.18;nan;101237.91;6160795;23;20446;-88
2022/06/26 04:43:56;;;;;;;10.00;2.30;;;;;;;16.20;nan;101235.78;6143688;23;20895;-87
2022/06/26 04:46:24;;;;;;;15.73;2.70;;;;;;;16.18;nan;101232.38;6136877;23;20411;-88
2022/06/26 04:48:53;;;;;;;11.27;2.90;;;;;;;16.24;nan;101253.59;6136282;23;20974;-87
2022/06/26 04:51:23;;;;;;;13.67;2.20;;;;;;;16.22;nan;101251.03;6161396;23;20412;-88
2022/06/26 04:53:57;;;;;;;8.27;1.87;;;;;;;16.21;nan;101245.75;6187278;23;20415;-87
2022/06/26 04:56:25;;;;;;;14.33;1.80;;;;;;;16.17;nan;101247.22;6136465;23;20431;-88
2022/06/26 04:58:53;;;;;;;7.90;2.00;;;;;;;16.13;nan;101251.50;6137040;23;20808;-88
2022/06/26 05:01:21;;;;;;;9.07;2.17;;;;;;;16.14;nan;101254.06;6160947;23;20907;-88
2022/06/26 05:03:52;;;;;;;12.17;2.70;;;;;;;16.04;nan;101247.28;6135960;23;20499;-88
2022/06/26 05:06:21;;;;;;;11.20;2.53;;;;;;;16.04;nan;101248.13;6160739;23;20717;-88
2022/06/26 05:08:49;;;;;;;11.27;2.37;;;;;;;16.05;nan;101249.84;6136642;23;20400;-88
2022/06/26 05:11:16;;;;;;;12.80;2.23;;;;;;;15.97;nan;101240.97;6135984;23;20415;-88
2022/06/26 05:13:46;;;;;;;18.60;2.80;;;;;;;16.03;nan;101251.97;6160937;23;20483;-88
2022/06/26 05:16:14;;;;;;;17.90;3.03;;;;;;;16.07;nan;101261.50;6136172;23;20487;-87
2022/06/26 05:18:42;;;;;;;18.00;2.33;;;;;;;16.09;nan;101266.81;6112747;23;20439;-88
2022/06/26 05:21:10;;;;;;;15.33;2.40;;;;;;;16.10;nan;101268.50;6136238;23;20408;-88
2022/06/26 05:23:38;;;;;;;9.23;1.77;;;;;;;16.05;nan;101269.13;6136808;23;20408;-88
2022/06/26 05:26:08;;;;;;;7.60;2.13;;;;;;;16.11;nan;101272.94;6112426;23;20396;-90
2022/06/26 05:28:38;;;;;;;7.57;1.90;;;;;;;16.09;nan;101266.81;6185379;23;20402;-85
2022/06/26 05:31:05;;;;;;;8.87;2.13;;;;;;;16.10;nan;101274.84;6160607;23;20419;-86
2022/06/26 05:33:34;;;;;;;12.93;2.33;;;;;;;16.00;nan;101268.09;6135626;23;20478;-87
2022/06/26 05:36:06;;;;;;;12.80;2.33;;;;;;;16.08;nan;101281.66;6159964;23;20412;-87
2022/06/26 05:38:35;;;;;;;7.40;1.83;;;;;;;16.07;nan;101279.94;6160714;23;20872;-86
2022/06/26 05:41:02;;;;;;;10.23;2.53;;;;;;;16.09;nan;101278.69;6135893;23;20408;-86
2022/06/26 05:43:30;;;;;;;13.57;2.33;;;;;;;16.13;nan;101285.47;6186478;23;20415;-86
2022/06/26 05:45:58;;;;;;;18.30;2.60;;;;;;;16.04;nan;101264.69;6135501;23;20400;-86
2022/06/26 05:48:26;;;;;;;16.00;2.70;;;;;;;16.16;nan;101284.19;6112128;23;20434;-86
2022/06/26 05:50:55;;;;;;;11.73;2.07;;;;;;;16.16;nan;101281.41;6136068;23;20404;-87
2022/06/26 05:53:22;;;;;;;10.40;2.37;;;;;;;16.17;nan;101274.81;6066262;23;20407;-86
2022/06/26 05:55:50;;;;;;;7.70;2.30;;;;;;;16.12;nan;101277.41;6019324;23;20742;-86
2022/06/26 05:58:20;;;;;;;14.10;2.47;;;;;;;16.16;nan;101275.91;6019639;23;20434;-86
2022/06/26 06:00:48;;;;;;;12.23;2.47;;;;;;;16.13;nan;101274.44;6019022;23;20451;-86
2022/06/26 06:03:15;;;;;;;16.63;2.70;;;;;;;16.16;nan;101275.91;6018758;23;20414;-86
2022/06/26 06:05:43;;;;;;;9.50;2.13;;;;;;;16.20;nan;101274.38;6019609;23;20434;-86
2022/06/26 06:08:10;;;;;;;8.53;2.10;;;;;;;16.23;nan;101268.44;6019464;23;20416;-85
2022/06/26 06:10:38;;;;;;;8.53;2.10;;;;;;;16.28;nan;101279.66;6019216;23;20416;-85
2022/06/26 06:13:07;;;;;;;14.57;2.63;;;;;;;16.34;nan;101276.03;6018868;23;20495;-86
2022/06/26 06:15:35;;;;;;;7.90;2.30;;;;;;;16.44;nan;101279.16;6066144;23;20419;-85
2022/06/26 06:18:07;;;;;;;6.27;2.30;;;;;;;16.50;nan;101278.31;6072571;23;20409;-86
2022/06/26 06:20:35;;;;;;;13.10;2.80;;;;;;;16.55;nan;101278.47;6185367;23;20498;-85
2022/06/26 06:23:15;;;;;;;7.50;2.53;;;;;;;16.56;nan;101266.34;6140506;23;20582;-86
2022/06/26 06:25:42;;;;;;;8.40;1.97;;;;;;;16.69;nan;101278.44;6159779;23;20495;-86
2022/06/26 06:28:10;;;;;;;7.57;1.70;;;;;;;16.72;nan;101269.72;6111325;23;20898;-87
2022/06/26 06:30:38;;;;;;;8.43;2.20;;;;;;;16.80;nan;101286.84;6103703;23;20433;-85
2022/06/26 06:33:06;;;;;;;17.90;2.50;;;;;;;16.83;nan;101278.13;6104251;23;20536;-87
2022/06/26 06:35:36;;;;;;;10.77;2.90;;;;;;;16.92;nan;101273.22;6106033;23;20412;-86
2022/06/26 06:38:04;;;;;;;14.77;2.37;;;;;;;17.01;nan;101288.44;6152674;23;20895;-89
2022/06/26 06:40:33;;;;;;;11.17;2.50;;;;;;;16.96;nan;101263.38;6105746;23;20759;-89
2022/06/26 06:43:02;;;;;;;14.13;3.70;;;;;;;17.03;nan;101275.25;6107320;23;20780;-89
2022/06/26 06:45:33;;;;;;;10.40;2.20;;;;;;;17.17;nan;101274.06;6107475;23;20393;-89
2022/06/26 06:48:03;;;;;;;5.17;1.60;;;;;;;17.19;nan;101266.41;6107436;23;20578;-90
2022/06/26 06:50:34;;;;;;;7.10;1.97;;;;;;;17.27;nan;101268.91;6107352;23;20413;-89
2022/06/26 06:53:04;;;;;;;11.03;2.13;;;;;;;17.50;nan;101292.31;6107183;23;20461;-90
2022/06/26 06:55:37;;;;;;;8.70;1.67;;;;;;;17.56;nan;101278.41;6107213;23;20452;-90
2022/06/26 06:58:05;;;;;;;8.57;1.73;;;;;;;17.57;nan;101293.06;6106642;23;20860;-89
2022/06/26 07:00:35;;;;;;;6.20;1.57;;;;;;;17.65;nan;101295.59;6083080;23;20544;-90
2022/06/26 07:03:05;;;;;;;5.13;1.43;;;;;;;17.61;nan;101292.41;6132852;23;21047;-90
2022/06/26 07:05:36;;;;;;;7.90;1.97;;;;;;;17.72;nan;101307.41;6109205;23;20457;-88
2022/06/26 07:08:08;;;;;;;15.00;1.87;;;;;;;17.74;nan;101294.22;6132142;23;20436;-89
2022/06/26 07:10:53;;;;;;;15.70;2.30;;;;;;;17.85;nan;101296.25;6108121;23;20451;-89
2022/06/26 07:13:25;;;;;;;6.30;1.57;;;;;;;17.95;nan;101304.84;6153737;23;20503;-89
2022/06/26 07:16:01;;;;;;;11.57;2.00;;;;;;;17.98;nan;101292.50;6106962;23;20420;-91
2022/06/26 07:18:29;;;;;;;9.83;2.17;;;;;;;18.06;nan;101299.66;6121443;23;20418;-90
2022/06/26 07:21:00;;;;;;;5.83;1.70;;;;;;;18.10;nan;101287.03;6107285;23;20492;-90
2022/06/26 07:23:30;;;;;;;8.37;2.23;;;;;;;18.15;nan;101292.72;6107234;23;20983;-90
2022/06/26 07:25:58;;;;;;;13.47;2.43;;;;;;;18.18;nan;101295.03;6107073;23;20421;-90
2022/06/26 07:28:26;;;;;;;15.80;3.03;;;;;;;18.26;nan;101294.75;6107576;23;20417;-89
2022/06/26 07:30:56;;;;;;;12.17;2.13;;;;;;;18.14;nan;101277.19;6136149;23;20420;-88
2022/06/26 07:36:13;;;;;;;12.17;1.50;;;;;;;18.42;nan;101298.81;6165707;23;20412;-86
2022/06/26 07:38:48;;;;;;;12.67;2.30;;;;;;;18.49;nan;101286.53;6137201;23;21038;-93
2022/06/26 08:06:29;;;;;;;6.07;1.40;;;;;;;18.93;nan;101314.97;6173399;23;20957;-92
2022/06/26 09:11:46;;;;;;;6.10;1.47;;;;;;;20.50;nan;101309.69;6162527;23;20452;-89
2022/06/26 09:14:15;;;;;;;6.90;1.30;;;;;;;20.62;nan;101311.31;6135148;23;20416;-89
2022/06/26 09:16:49;;;;;;;9.67;1.30;;;;;;;20.65;nan;101312.78;6185616;23;20479;-89
2022/06/26 09:19:43;;;;;;;4.67;1.40;;;;;;;20.77;nan;101312.75;6116464;23;20420;-89
2022/06/26 09:22:17;;;;;;;6.97;1.13;;;;;;;20.64;nan;101302.75;6140757;23;20795;-90
2022/06/26 09:25:00;;;;;;;4.30;1.20;;;;;;;20.68;nan;101290.91;6113012;23;20548;-88
2022/06/26 09:27:42;;;;;;;12.33;1.40;;;;;;;20.80;nan;101288.06;6135395;23;20411;-89
2022/06/26 09:30:15;;;;;;;2.40;1.00;;;;;;;20.97;nan;101304.81;6154508;23;20475;-89
2022/06/26 09:33:06;;;;;;;7.40;1.63;;;;;;;21.02;nan;101318.78;6114994;23;20483;-88
2022/06/26 09:35:44;;;;;;;8.60;1.80;;;;;;;21.27;nan;101310.94;6166173;23;20423;-89
2022/06/26 10:33:34;;;;;;;10.70;2.70;;;;;;;22.70;nan;101313.97;6180403;23;20807;-89
2022/06/26 10:36:14;;;;;;;7.00;2.27;;;;;;;22.84;nan;101314.44;6148220;23;20423;-89
2022/06/26 10:38:47;;;;;;;13.97;5.30;;;;;;;22.85;nan;101322.53;6139429;23;20407;-89
2022/06/26 10:44:47;;;;;;;8.30;2.27;;;;;;;23.20;nan;101335.16;6164036;23;20412;-90
2022/06/26 10:47:18;;;;;;;14.60;5.63;;;;;;;23.19;nan;101323.16;6138013;23;20412;-89
2022/06/26 10:50:01;;;;;;;10.57;4.63;;;;;;;22.87;nan;101341.78;6102796;23;20772;-89
2022/06/26 10:52:35;;;;;;;6.10;2.10;;;;;;;22.85;nan;101344.81;6096846;23;20402;-90
2022/06/26 10:55:17;;;;;;;5.20;1.30;;;;;;;22.93;nan;101343.50;6077504;23;20410;-89
2022/06/26 10:57:56;;;;;;;12.57;2.40;;;;;;;22.90;nan;101369.16;6078131;23;20421;-90
2022/06/26 11:00:40;;;;;;;5.30;2.20;;;;;;;22.75;nan;101348.28;6101654;23;20856;-90
2022/06/26 11:14:26;;;;;;;6.83;1.83;;;;;;;23.54;nan;101347.81;6066137;23;20403;-92
2022/06/26 11:16:54;;;;;;;3.90;1.13;;;;;;;23.63;nan;101353.75;6019275;23;20556;-90
2022/06/26 11:31:00;;;;;;;5.67;1.60;;;;;;;23.77;nan;101380.94;6186784;23;20448;-88
2022/06/26 11:33:34;;;;;;;12.83;2.23;;;;;;;23.93;nan;101361.53;6177270;23;20435;-87
2022/06/26 11:36:04;;;;;;;5.80;1.13;;;;;;;24.11;nan;101355.50;6132443;23;20476;-89
2022/06/26 11:38:37;;;;;;;5.50;1.37;;;;;;;24.18;nan;101369.25;6111910;23;20491;-91
2022/06/26 11:41:09;;;;;;;6.97;1.20;;;;;;;24.03;nan;101347.66;6137173;23;20514;-88
2022/06/26 11:43:46;;;;;;;5.60;1.40;;;;;;;24.03;nan;101356.88;6110630;23;20412;-87
2022/06/26 11:46:14;;;;;;;4.20;1.10;;;;;;;24.07;nan;101355.19;6159237;23;20415;-86
2022/06/26 11:48:41;;;;;;;4.90;1.57;;;;;;;23.99;nan;101364.09;6112077;23;20479;-86
2022/06/26 11:51:16;;;;;;;7.50;1.53;;;;;;;23.93;nan;101339.19;6137142;23;20482;-87
2022/06/26 11:53:51;;;;;;;5.07;1.50;;;;;;;24.01;nan;101352.66;6138810;23;20414;-89
2022/06/26 11:56:28;;;;;;;8.07;1.50;;;;;;;24.07;nan;101351.56;6113709;23;20408;-89
2022/06/26 11:59:00;;;;;;;11.03;1.67;;;;;;;24.02;nan;101344.00;6162840;23;20422;-89
2022/06/26 12:01:32;;;;;;;10.03;1.33;;;;;;;24.04;nan;101361.34;6137053;23;20562;-88
2022/06/26 12:04:01;;;;;;;13.87;1.63;;;;;;;24.21;nan;101350.00;6137401;23;20392;-88
2022/06/26 12:06:53;;;;;;;8.00;1.73;;;;;;;24.05;nan;101354.63;6137030;23;20404;-89
2022/06/26 12:09:28;;;;;;;4.37;1.20;;;;;;;24.22;nan;101348.06;6140464;23;20550;-89
2022/06/26 12:11:56;;;;;;;7.03;1.70;;;;;;;24.20;nan;101333.50;6136970;23;21014;-88
2022/06/26 12:14:25;;;;;;;5.47;1.63;;;;;;;24.36;nan;101338.94;6112577;23;20419;-88
2022/06/26 12:16:57;;;;;;;5.50;1.80;;;;;;;24.55;nan;101342.13;6137002;23;20483;-89
2022/06/26 12:19:26;;;;;;;6.80;1.73;;;;;;;24.51;nan;101340.13;6136537;23;20408;-88
2022/06/26 12:21:54;;;;;;;10.83;1.50;;;;;;;24.40;nan;101336.44;6136125;23;20502;-89
2022/06/26 12:24:23;;;;;;;10.27;2.63;;;;;;;24.34;nan;101323.56;6136208;23;20416;-88
2022/06/26 12:26:50;;;;;;;7.20;1.50;;;;;;;24.23;nan;101332.97;6187245;23;20408;-87
2022/06/26 12:29:19;;;;;;;6.27;2.30;;;;;;;24.34;nan;101329.97;6136614;23;20680;-88
2022/06/26 12:31:54;;;;;;;5.30;2.17;;;;;;;24.55;nan;101350.50;6114811;23;20443;-87
2022/06/26 12:34:22;;;;;;;9.47;1.47;;;;;;;24.54;nan;101357.19;6117448;23;20405;-87
2022/06/26 12:36:50;;;;;;;6.87;1.77;;;;;;;24.49;nan;101348.78;6115324;23;20420;-88
2022/06/26 12:39:18;;;;;;;9.03;1.73;;;;;;;24.42;nan;101332.28;6113445;23;20412;-87
2022/06/26 12:42:07;;;;;;;7.27;1.80;;;;;;;24.40;nan;101342.03;6149084;23;20407;-87
2022/06/26 12:44:35;;;;;;;4.67;1.70;;;;;;;24.44;nan;101345.94;6137228;23;20555;-86
2022/06/26 12:47:07;;;;;;;4.63;1.70;;;;;;;24.48;nan;101329.47;6137560;23;20415;-92
2022/06/26 12:49:46;;;;;;;10.60;1.70;;;;;;;24.44;nan;101346.78;6188149;23;20419;-92
2022/06/26 12:52:20;;;;;;;7.93;1.73;;;;;;;24.35;nan;101314.06;6116030;23;20487;-86
2022/06/26 12:54:48;;;;;;;3.90;1.13;;;;;;;24.48;nan;101330.31;6187147;23;20427;-86
2022/06/26 12:57:18;;;;;;;6.57;2.03;;;;;;;24.51;nan;101318.59;6137011;23;20519;-86
2022/06/26 12:59:47;;;;;;;7.13;1.57;;;;;;;24.63;nan;101322.00;6137252;23;20491;-88
2022/06/26 13:02:17;;;;;;;8.73;1.83;;;;;;;24.76;nan;101327.09;6122328;23;20404;-90
2022/06/26 13:04:45;;;;;;;5.73;1.30;;;;;;;24.50;nan;101305.75;6121244;23;20436;-87
2022/06/26 13:07:26;;;;;;;5.37;1.43;;;;;;;24.45;nan;101325.28;6194801;23;20408;-89
2022/06/26 13:09:57;;;;;;;5.97;1.50;;;;;;;24.59;nan;101320.06;6168338;23;20414;-89
2022/06/26 13:12:26;;;;;;;13.47;2.03;;;;;;;24.63;nan;101324.78;6118099;23;21028;-88
2022/06/26 13:14:55;;;;;;;11.40;1.67;;;;;;;24.59;nan;101306.06;6161333;23;20483;-87
2022/06/26 13:17:23;;;;;;;7.30;1.50;;;;;;;24.63;nan;101315.59;6136094;23;21025;-88
2022/06/26 13:19:51;;;;;;;5.07;1.30;;;;;;;24.77;nan;101300.00;6136172;23;20546;-89
2022/06/26 13:22:20;;;;;;;8.43;1.17;;;;;;;25.02;nan;101308.44;6112300;23;20415;-91
2022/06/26 13:24:48;;;;;;;4.80;1.40;;;;;;;24.93;nan;101314.84;6139091;23;20922;-91
2022/06/26 13:27:16;;;;;;;7.80;1.20;;;;;;;24.73;nan;101316.47;6137558;23;20401;-89
2022/06/26 13:29:44;;;;;;;9.40;1.33;;;;;;;24.82;nan;101313.16;6161074;23;20507;-85
2022/06/26 13:32:17;;;;;;;7.03;1.10;;;;;;;24.76;nan;101315.09;6113225;23;20514;-86
2022/06/26 13:34:46;;;;;;;5.67;1.50;;;;;;;24.63;nan;101302.44;6111826;23;20534;-87
2022/06/26 13:37:16;;;;;;;5.30;1.33;;;;;;;24.69;nan;101303.31;6135613;23;20543;-87
2022/06/26 13:46:57;;;;;;;5.57;0.90;;;;;;;25.59;nan;101300.97;6187364;23;20404;-92
2022/06/26 13:49:29;;;;;;;5.67;1.40;;;;;;;25.56;nan;101307.13;6119076;23;20420;-91
2022/06/26 13:58:20;;;;;;;5.13;0.80;;;;;;;25.40;nan;101304.31;6145630;23;20447;-91
2022/06/26 14:00:53;;;;;;;5.93;1.27;;;;;;;25.27;nan;101309.63;6120823;23;20478;-91
2022/06/26 14:03:25;;;;;;;3.57;1.17;;;;;;;25.16;nan;101330.31;6141760;23;20495;-90
2022/06/26 14:05:54;;;;;;;5.20;1.30;;;;;;;25.06;nan;101297.56;6160329;23;20523;-88
2022/06/26 14:08:22;;;;;;;6.83;1.40;;;;;;;25.23;nan;101309.34;6160710;23;20543;-88
2022/06/26 14:11:04;;;;;;;6.90;1.37;;;;;;;25.20;nan;101318.31;6135923;23;21022;-96
2022/06/26 14:13:46;;;;;;;7.97;1.13;;;;;;;24.97;nan;101327.19;6116528;23;20423;-94
2022/06/26 14:19:01;;;;;;;12.20;1.70;;;;;;;25.28;nan;101300.94;6117137;23;20461;-92
2022/06/26 14:27:41;;;;;;;4.70;1.20;;;;;;;25.22;nan;101309.59;6180359;23;20372;-93
2022/06/26 14:30:16;;;;;;;5.20;1.40;;;;;;;25.33;nan;101281.38;6140758;23;20482;-93
2022/06/26 14:32:44;;;;;;;8.33;1.67;;;;;;;25.12;nan;101291.72;6139376;23;20411;-93
2022/06/26 15:36:31;;;;;;;4.60;1.00;;;;;;;24.87;nan;101296.38;6115907;23;20521;-92
2022/06/26 15:42:58;;;;;;;5.73;1.70;;;;;;;25.32;nan;101290.06;6188594;23;20515;-95
2022/06/26 15:45:41;;;;;;;7.13;1.60;;;;;;;25.33;nan;101298.16;6138480;23;20490;-91
2022/06/26 15:48:22;;;;;;;5.83;1.20;;;;;;;25.32;nan;101290.88;6138154;23;20477;-93
2022/06/26 15:51:09;;;;;;;8.00;1.93;;;;;;;24.92;nan;101290.78;6137719;23;20411;-93
2022/06/26 15:57:24;;;;;;;5.70;1.33;;;;;;;24.87;nan;101299.16;6188761;23;20425;-93
2022/06/26 16:03:39;;;;;;;9.10;1.50;;;;;;;24.86;nan;101297.47;6188736;23;20418;-93
